sensor_id;sensor_type;location;lat;lon;timestamp;temperature;humidity
40454;DHT22;26160;51.858;4.398;2022-11-25T00:01:13;9.60;99.90
40454;DHT22;26160;51.858;4.398;2022-11-25T00:03:41;9.50;99.90
40454;DHT22;26160;51.858;4.398;2022-11-25T00:06:18;9.50;99.90
40454;DHT22;26160;51.858;4.398;2022-11-25T00:08:46;9.40;99.90
40454;DHT22;26160;51.858;4.398;2022-11-25T00:11:13;9.40;99.90
40454;DHT22;26160;51.858;4.398;2022-11-25T00:13:41;9.40;99.90
40454;DHT22;26160;51.858;4.398;2022-11-25T00:16:10;9.30;99.90
40454;DHT22;26160;51.858;4.398;2022-11-25T00:18:37;9.30;99.90
40454;DHT22;26160;51.858;4.398;2022-11-25T00:21:09;9.30;99.90
40454;DHT22;26160;51.858;4.398;2022-11-25T00:23:36;9.30;99.90
40454;DHT22;26160;51.858;4.398;2022-11-25T00:26:10;9.30;99.90
40454;DHT22;26160;51.858;4.398;2022-11-25T00:28:38;9.30;99.90
40454;DHT22;26160;51.858;4.398;2022-11-25T00:31:18;9.40;99.90
40454;DHT22;26160;51.858;4.398;2022-11-25T00:33:45;9.40;99.90
40454;DHT22;26160;51.858;4.398;2022-11-25T00:36:24;9.40;99.90
40454;DHT22;26160;51.858;4.398;2022-11-25T00:39:03;9.50;99.90
40454;DHT22;26160;51.858;4.398;2022-11-25T00:41:29;9.50;99.90
40454;DHT22;26160;51.858;4.398;2022-11-25T00:44:16;9.50;99.90
40454;DHT22;26160;51.858;4.398;2022-11-25T00:47:02;9.60;99.90
40454;DHT22;26160;51.858;4.398;2022-11-25T00:49:28;9.60;99.90
40454;DHT22;26160;51.858;4.398;2022-11-25T00:51:55;9.70;99.90
40454;DHT22;26160;51.858;4.398;2022-11-25T00:54:21;9.60;99.90
40454;DHT22;26160;51.858;4.398;2022-11-25T00:56:48;9.70;99.90
40454;DHT22;26160;51.858;4.398;2022-11-25T00:59:14;9.70;99.90
40454;DHT22;26160;51.858;4.398;2022-11-25T01:01:40;9.70;99.90
40454;DHT22;26160;51.858;4.398;2022-11-25T01:04:07;9.70;99.90
40454;DHT22;26160;51.858;4.398;2022-11-25T01:06:34;9.70;99.90
40454;DHT22;26160;51.858;4.398;2022-11-25T01:09:00;9.70;99.90
40454;DHT22;26160;51.858;4.398;2022-11-25T01:11:26;9.70;99.90
40454;DHT22;26160;51.858;4.398;2022-11-25T01:13:54;9.80;99.90
40454;DHT22;26160;51.858;4.398;2022-11-25T01:16:21;9.70;99.90
40454;DHT22;26160;51.858;4.398;2022-11-25T01:18:48;9.80;99.90
40454;DHT22;26160;51.858;4.398;2022-11-25T01:21:18;9.80;99.90
40454;DHT22;26160;51.858;4.398;2022-11-25T01:23:45;9.80;99.90
40454;DHT22;26160;51.858;4.398;2022-11-25T01:26:14;9.80;99.90
40454;DHT22;26160;51.858;4.398;2022-11-25T01:28:40;9.70;99.90
40454;DHT22;26160;51.858;4.398;2022-11-25T01:31:12;9.80;99.90
40454;DHT22;26160;51.858;4.398;2022-11-25T01:33:42;9.80;99.90
40454;DHT22;26160;51.858;4.398;2022-11-25T01:36:11;9.80;99.90
40454;DHT22;26160;51.858;4.398;2022-11-25T01:38:38;9.80;99.90
40454;DHT22;26160;51.858;4.398;2022-11-25T01:41:10;9.80;99.90
40454;DHT22;26160;51.858;4.398;2022-11-25T01:43:36;9.80;99.90
40454;DHT22;26160;51.858;4.398;2022-11-25T01:48:56;9.80;99.90
40454;DHT22;26160;51.858;4.398;2022-11-25T01:51:27;9.80;99.90
40454;DHT22;26160;51.858;4.398;2022-11-25T01:53:56;9.70;99.90
40454;DHT22;26160;51.858;4.398;2022-11-25T01:56:26;9.70;99.90
40454;DHT22;26160;51.858;4.398;2022-11-25T01:58:54;9.70;99.90
40454;DHT22;26160;51.858;4.398;2022-11-25T02:03:57;9.70;99.90
40454;DHT22;26160;51.858;4.398;2022-11-25T02:06:27;9.70;99.90
40454;DHT22;26160;51.858;4.398;2022-11-25T02:09:05;9.70;99.90
40454;DHT22;26160;51.858;4.398;2022-11-25T02:11:34;9.70;99.90
40454;DHT22;26160;51.858;4.398;2022-11-25T02:14:01;9.60;99.90
40454;DHT22;26160;51.858;4.398;2022-11-25T02:16:28;9.60;99.90
40454;DHT22;26160;51.858;4.398;2022-11-25T02:18:54;9.50;99.90
40454;DHT22;26160;51.858;4.398;2022-11-25T02:21:29;9.60;99.90
40454;DHT22;26160;51.858;4.398;2022-11-25T02:24:26;9.50;99.90
40454;DHT22;26160;51.858;4.398;2022-11-25T02:26:54;9.50;99.90
40454;DHT22;26160;51.858;4.398;2022-11-25T02:29:20;9.50;99.90
40454;DHT22;26160;51.858;4.398;2022-11-25T02:31:48;9.50;99.90
40454;DHT22;26160;51.858;4.398;2022-11-25T02:34:15;9.50;99.90
40454;DHT22;26160;51.858;4.398;2022-11-25T02:36:42;9.50;99.90
40454;DHT22;26160;51.858;4.398;2022-11-25T02:39:08;9.50;99.90
40454;DHT22;26160;51.858;4.398;2022-11-25T02:41:44;9.60;99.90
40454;DHT22;26160;51.858;4.398;2022-11-25T02:44:11;9.60;99.90
40454;DHT22;26160;51.858;4.398;2022-11-25T02:46:37;9.60;99.90
40454;DHT22;26160;51.858;4.398;2022-11-25T02:49:04;9.60;99.90
40454;DHT22;26160;51.858;4.398;2022-11-25T02:51:31;9.60;99.90
40454;DHT22;26160;51.858;4.398;2022-11-25T02:53:58;9.60;99.90
40454;DHT22;26160;51.858;4.398;2022-11-25T02:56:27;9.60;99.90
40454;DHT22;26160;51.858;4.398;2022-11-25T02:58:53;9.60;99.90
40454;DHT22;26160;51.858;4.398;2022-11-25T03:01:20;9.50;99.90
40454;DHT22;26160;51.858;4.398;2022-11-25T03:03:46;9.50;99.90
40454;DHT22;26160;51.858;4.398;2022-11-25T03:06:12;9.50;99.90
40454;DHT22;26160;51.858;4.398;2022-11-25T03:08:38;9.50;99.90
40454;DHT22;26160;51.858;4.398;2022-11-25T03:11:05;9.50;99.90
40454;DHT22;26160;51.858;4.398;2022-11-25T03:13:31;9.40;99.90
40454;DHT22;26160;51.858;4.398;2022-11-25T03:15:57;9.40;99.90
40454;DHT22;26160;51.858;4.398;2022-11-25T03:18:23;9.40;99.90
40454;DHT22;26160;51.858;4.398;2022-11-25T03:20:54;9.40;99.90
40454;DHT22;26160;51.858;4.398;2022-11-25T03:23:21;9.40;99.90
40454;DHT22;26160;51.858;4.398;2022-11-25T03:25:47;9.30;99.90
40454;DHT22;26160;51.858;4.398;2022-11-25T03:28:13;9.30;99.90
40454;DHT22;26160;51.858;4.398;2022-11-25T03:30:40;9.20;99.90
40454;DHT22;26160;51.858;4.398;2022-11-25T03:33:06;9.20;99.90
40454;DHT22;26160;51.858;4.398;2022-11-25T03:35:32;9.10;99.90
40454;DHT22;26160;51.858;4.398;2022-11-25T03:37:58;9.10;99.90
40454;DHT22;26160;51.858;4.398;2022-11-25T03:40:24;9.10;99.90
40454;DHT22;26160;51.858;4.398;2022-11-25T03:42:50;9.00;99.90
40454;DHT22;26160;51.858;4.398;2022-11-25T03:45:16;9.00;99.90
40454;DHT22;26160;51.858;4.398;2022-11-25T03:47:43;9.00;99.90
40454;DHT22;26160;51.858;4.398;2022-11-25T03:50:13;8.90;99.90
40454;DHT22;26160;51.858;4.398;2022-11-25T03:52:39;8.80;99.90
40454;DHT22;26160;51.858;4.398;2022-11-25T03:55:06;8.80;99.90
40454;DHT22;26160;51.858;4.398;2022-11-25T03:57:32;8.80;99.90
40454;DHT22;26160;51.858;4.398;2022-11-25T03:59:59;8.80;99.90
40454;DHT22;26160;51.858;4.398;2022-11-25T04:02:25;8.70;99.90
40454;DHT22;26160;51.858;4.398;2022-11-25T04:04:51;8.70;99.90
40454;DHT22;26160;51.858;4.398;2022-11-25T04:07:17;8.70;99.90
40454;DHT22;26160;51.858;4.398;2022-11-25T04:09:43;8.70;99.90
40454;DHT22;26160;51.858;4.398;2022-11-25T04:12:10;8.70;99.90
40454;DHT22;26160;51.858;4.398;2022-11-25T04:14:54;8.70;99.90
40454;DHT22;26160;51.858;4.398;2022-11-25T04:17:20;8.70;99.90
40454;DHT22;26160;51.858;4.398;2022-11-25T04:19:47;8.70;99.90
40454;DHT22;26160;51.858;4.398;2022-11-25T04:22:13;8.70;99.90
40454;DHT22;26160;51.858;4.398;2022-11-25T04:24:39;8.70;99.90
40454;DHT22;26160;51.858;4.398;2022-11-25T04:27:05;8.70;99.90
40454;DHT22;26160;51.858;4.398;2022-11-25T04:29:32;8.70;99.90
40454;DHT22;26160;51.858;4.398;2022-11-25T04:31:58;8.70;99.90
40454;DHT22;26160;51.858;4.398;2022-11-25T04:34:24;8.70;99.90
40454;DHT22;26160;51.858;4.398;2022-11-25T04:36:50;8.70;99.90
40454;DHT22;26160;51.858;4.398;2022-11-25T04:39:17;8.70;99.90
40454;DHT22;26160;51.858;4.398;2022-11-25T04:41:43;8.70;99.90
40454;DHT22;26160;51.858;4.398;2022-11-25T04:44:09;8.70;99.90
40454;DHT22;26160;51.858;4.398;2022-11-25T04:46:39;8.70;99.90
40454;DHT22;26160;51.858;4.398;2022-11-25T04:49:05;8.70;99.90
40454;DHT22;26160;51.858;4.398;2022-11-25T04:51:31;8.80;99.90
40454;DHT22;26160;51.858;4.398;2022-11-25T04:53:57;8.80;99.90
40454;DHT22;26160;51.858;4.398;2022-11-25T04:56:24;8.70;99.90
40454;DHT22;26160;51.858;4.398;2022-11-25T04:58:50;8.80;99.90
40454;DHT22;26160;51.858;4.398;2022-11-25T05:01:35;8.70;99.90
40454;DHT22;26160;51.858;4.398;2022-11-25T05:04:01;8.80;99.90
40454;DHT22;26160;51.858;4.398;2022-11-25T05:06:27;8.70;99.90
40454;DHT22;26160;51.858;4.398;2022-11-25T05:08:53;8.70;99.90
40454;DHT22;26160;51.858;4.398;2022-11-25T05:11:19;8.70;99.90
40454;DHT22;26160;51.858;4.398;2022-11-25T05:13:45;8.60;99.90
40454;DHT22;26160;51.858;4.398;2022-11-25T05:16:12;8.60;99.90
40454;DHT22;26160;51.858;4.398;2022-11-25T05:18:38;8.60;99.90
40454;DHT22;26160;51.858;4.398;2022-11-25T05:21:05;8.50;99.90
40454;DHT22;26160;51.858;4.398;2022-11-25T05:23:32;8.50;99.90
40454;DHT22;26160;51.858;4.398;2022-11-25T05:26:02;8.50;99.90
40454;DHT22;26160;51.858;4.398;2022-11-25T05:28:29;8.40;99.90
40454;DHT22;26160;51.858;4.398;2022-11-25T05:30:56;8.40;99.90
40454;DHT22;26160;51.858;4.398;2022-11-25T05:33:22;8.40;99.90
40454;DHT22;26160;51.858;4.398;2022-11-25T05:35:59;8.40;99.90
40454;DHT22;26160;51.858;4.398;2022-11-25T05:38:26;8.30;99.90
40454;DHT22;26160;51.858;4.398;2022-11-25T05:40:53;8.20;99.90
40454;DHT22;26160;51.858;4.398;2022-11-25T05:43:24;8.20;99.90
40454;DHT22;26160;51.858;4.398;2022-11-25T05:45:50;8.20;99.90
40454;DHT22;26160;51.858;4.398;2022-11-25T05:48:16;8.20;99.90
40454;DHT22;26160;51.858;4.398;2022-11-25T05:50:43;8.20;99.90
40454;DHT22;26160;51.858;4.398;2022-11-25T05:53:09;8.20;99.90
40454;DHT22;26160;51.858;4.398;2022-11-25T05:55:36;8.20;99.90
40454;DHT22;26160;51.858;4.398;2022-11-25T05:58:03;8.10;99.90
40454;DHT22;26160;51.858;4.398;2022-11-25T06:00:31;8.10;99.90
40454;DHT22;26160;51.858;4.398;2022-11-25T06:02:57;8.00;99.90
40454;DHT22;26160;51.858;4.398;2022-11-25T06:05:23;8.10;99.90
40454;DHT22;26160;51.858;4.398;2022-11-25T06:07:50;8.00;99.90
40454;DHT22;26160;51.858;4.398;2022-11-25T06:10:16;7.90;99.90
40454;DHT22;26160;51.858;4.398;2022-11-25T06:12:43;7.90;99.90
40454;DHT22;26160;51.858;4.398;2022-11-25T06:15:09;7.90;99.90
40454;DHT22;26160;51.858;4.398;2022-11-25T06:17:36;7.90;99.90
40454;DHT22;26160;51.858;4.398;2022-11-25T06:20:04;7.90;99.90
40454;DHT22;26160;51.858;4.398;2022-11-25T06:22:30;7.90;99.90
40454;DHT22;26160;51.858;4.398;2022-11-25T06:24:56;7.90;99.90
40454;DHT22;26160;51.858;4.398;2022-11-25T06:27:22;7.90;99.90
40454;DHT22;26160;51.858;4.398;2022-11-25T06:29:48;7.90;99.90
40454;DHT22;26160;51.858;4.398;2022-11-25T06:32:14;7.80;99.90
40454;DHT22;26160;51.858;4.398;2022-11-25T06:34:40;7.80;99.90
40454;DHT22;26160;51.858;4.398;2022-11-25T06:37:08;7.80;99.90
40454;DHT22;26160;51.858;4.398;2022-11-25T06:39:35;7.80;99.90
40454;DHT22;26160;51.858;4.398;2022-11-25T06:42:01;7.70;99.90
40454;DHT22;26160;51.858;4.398;2022-11-25T06:44:29;7.70;99.90
40454;DHT22;26160;51.858;4.398;2022-11-25T06:46:55;7.70;99.90
40454;DHT22;26160;51.858;4.398;2022-11-25T06:49:21;7.70;99.90
40454;DHT22;26160;51.858;4.398;2022-11-25T06:51:51;7.70;99.90
40454;DHT22;26160;51.858;4.398;2022-11-25T06:54:17;7.70;99.90
40454;DHT22;26160;51.858;4.398;2022-11-25T06:56:43;7.70;99.90
40454;DHT22;26160;51.858;4.398;2022-11-25T06:59:09;7.60;99.90
40454;DHT22;26160;51.858;4.398;2022-11-25T07:01:35;7.60;99.90
40454;DHT22;26160;51.858;4.398;2022-11-25T07:04:03;7.60;99.90
40454;DHT22;26160;51.858;4.398;2022-11-25T07:06:31;7.50;99.90
40454;DHT22;26160;51.858;4.398;2022-11-25T07:08:58;7.60;99.90
40454;DHT22;26160;51.858;4.398;2022-11-25T07:11:33;7.60;99.90
40454;DHT22;26160;51.858;4.398;2022-11-25T07:14:05;7.50;99.90
40454;DHT22;26160;51.858;4.398;2022-11-25T07:16:33;7.50;99.90
40454;DHT22;26160;51.858;4.398;2022-11-25T07:19:00;7.50;99.90
40454;DHT22;26160;51.858;4.398;2022-11-25T07:21:28;7.50;99.90
40454;DHT22;26160;51.858;4.398;2022-11-25T07:23:59;7.40;99.90
40454;DHT22;26160;51.858;4.398;2022-11-25T07:26:28;7.30;99.90
40454;DHT22;26160;51.858;4.398;2022-11-25T07:28:57;7.30;99.90
40454;DHT22;26160;51.858;4.398;2022-11-25T07:31:26;7.40;99.90
40454;DHT22;26160;51.858;4.398;2022-11-25T07:34:16;7.40;99.90
40454;DHT22;26160;51.858;4.398;2022-11-25T07:36:45;7.40;99.90
40454;DHT22;26160;51.858;4.398;2022-11-25T07:39:16;7.40;99.90
40454;DHT22;26160;51.858;4.398;2022-11-25T07:41:43;7.30;99.90
40454;DHT22;26160;51.858;4.398;2022-11-25T07:44:11;7.40;99.90
40454;DHT22;26160;51.858;4.398;2022-11-25T07:46:40;7.50;99.90
40454;DHT22;26160;51.858;4.398;2022-11-25T07:49:15;7.60;99.90
40454;DHT22;26160;51.858;4.398;2022-11-25T07:51:52;7.50;99.90
40454;DHT22;26160;51.858;4.398;2022-11-25T07:54:20;7.50;99.90
40454;DHT22;26160;51.858;4.398;2022-11-25T07:56:46;7.60;99.90
40454;DHT22;26160;51.858;4.398;2022-11-25T07:59:15;7.70;99.90
40454;DHT22;26160;51.858;4.398;2022-11-25T08:01:42;7.70;99.90
40454;DHT22;26160;51.858;4.398;2022-11-25T08:04:10;7.70;99.90
40454;DHT22;26160;51.858;4.398;2022-11-25T08:06:42;7.70;99.90
40454;DHT22;26160;51.858;4.398;2022-11-25T08:09:12;7.80;99.90
40454;DHT22;26160;51.858;4.398;2022-11-25T08:11:38;7.90;99.90
40454;DHT22;26160;51.858;4.398;2022-11-25T08:14:05;7.90;99.90
40454;DHT22;26160;51.858;4.398;2022-11-25T08:16:31;8.00;99.90
40454;DHT22;26160;51.858;4.398;2022-11-25T08:18:59;8.00;99.90
40454;DHT22;26160;51.858;4.398;2022-11-25T08:21:26;8.10;99.90
40454;DHT22;26160;51.858;4.398;2022-11-25T08:23:53;8.20;99.90
40454;DHT22;26160;51.858;4.398;2022-11-25T08:26:28;8.30;99.90
40454;DHT22;26160;51.858;4.398;2022-11-25T08:28:58;8.30;99.90
40454;DHT22;26160;51.858;4.398;2022-11-25T08:31:31;8.40;99.90
40454;DHT22;26160;51.858;4.398;2022-11-25T08:33:57;8.40;99.90
40454;DHT22;26160;51.858;4.398;2022-11-25T08:36:25;8.50;99.90
40454;DHT22;26160;51.858;4.398;2022-11-25T08:38:54;8.50;99.90
40454;DHT22;26160;51.858;4.398;2022-11-25T08:41:28;8.50;99.90
40454;DHT22;26160;51.858;4.398;2022-11-25T08:43:55;8.50;99.90
40454;DHT22;26160;51.858;4.398;2022-11-25T08:46:24;8.50;99.90
40454;DHT22;26160;51.858;4.398;2022-11-25T08:48:53;8.60;99.90
40454;DHT22;26160;51.858;4.398;2022-11-25T08:51:23;8.60;99.90
40454;DHT22;26160;51.858;4.398;2022-11-25T08:53:49;8.60;99.90
40454;DHT22;26160;51.858;4.398;2022-11-25T08:56:20;8.60;99.90
40454;DHT22;26160;51.858;4.398;2022-11-25T08:58:48;8.60;99.90
40454;DHT22;26160;51.858;4.398;2022-11-25T09:01:15;8.60;99.90
40454;DHT22;26160;51.858;4.398;2022-11-25T09:03:45;8.60;99.90
40454;DHT22;26160;51.858;4.398;2022-11-25T09:06:12;8.70;99.90
40454;DHT22;26160;51.858;4.398;2022-11-25T09:08:39;8.70;99.90
40454;DHT22;26160;51.858;4.398;2022-11-25T09:11:06;8.70;99.90
40454;DHT22;26160;51.858;4.398;2022-11-25T09:13:33;8.70;99.90
40454;DHT22;26160;51.858;4.398;2022-11-25T09:15:59;8.80;99.90
40454;DHT22;26160;51.858;4.398;2022-11-25T09:18:27;8.80;99.90
40454;DHT22;26160;51.858;4.398;2022-11-25T09:20:56;8.90;99.90
40454;DHT22;26160;51.858;4.398;2022-11-25T09:23:22;8.90;99.90
40454;DHT22;26160;51.858;4.398;2022-11-25T09:25:52;8.90;99.90
40454;DHT22;26160;51.858;4.398;2022-11-25T09:28:19;9.00;99.90
40454;DHT22;26160;51.858;4.398;2022-11-25T09:30:45;9.10;99.90
40454;DHT22;26160;51.858;4.398;2022-11-25T09:33:11;9.10;99.90
40454;DHT22;26160;51.858;4.398;2022-11-25T09:35:37;9.10;99.90
40454;DHT22;26160;51.858;4.398;2022-11-25T09:38:03;9.20;99.90
40454;DHT22;26160;51.858;4.398;2022-11-25T09:43:44;9.30;99.90
40454;DHT22;26160;51.858;4.398;2022-11-25T09:46:38;9.40;99.90
40454;DHT22;26160;51.858;4.398;2022-11-25T09:54:35;9.50;99.90
40454;DHT22;26160;51.858;4.398;2022-11-25T09:57:21;9.60;99.90
40454;DHT22;26160;51.858;4.398;2022-11-25T10:00:05;9.60;99.90
40454;DHT22;26160;51.858;4.398;2022-11-25T10:05:15;9.70;99.90
40454;DHT22;26160;51.858;4.398;2022-11-25T10:07:47;9.80;99.90
40454;DHT22;26160;51.858;4.398;2022-11-25T10:10:25;9.80;99.90
40454;DHT22;26160;51.858;4.398;2022-11-25T10:12:54;9.80;99.90
40454;DHT22;26160;51.858;4.398;2022-11-25T10:15:42;9.90;99.90
40454;DHT22;26160;51.858;4.398;2022-11-25T10:18:26;10.00;99.90
40454;DHT22;26160;51.858;4.398;2022-11-25T10:20:54;10.00;99.90
40454;DHT22;26160;51.858;4.398;2022-11-25T10:23:31;10.10;99.90
40454;DHT22;26160;51.858;4.398;2022-11-25T10:26:12;10.20;99.90
40454;DHT22;26160;51.858;4.398;2022-11-25T10:28:42;10.20;99.90
40454;DHT22;26160;51.858;4.398;2022-11-25T10:31:19;10.20;99.90
40454;DHT22;26160;51.858;4.398;2022-11-25T10:33:49;10.30;99.90
40454;DHT22;26160;51.858;4.398;2022-11-25T10:36:23;10.30;99.90
40454;DHT22;26160;51.858;4.398;2022-11-25T10:41:28;10.30;99.90
40454;DHT22;26160;51.858;4.398;2022-11-25T10:43:55;10.40;99.90
40454;DHT22;26160;51.858;4.398;2022-11-25T10:49:13;10.40;99.90
40454;DHT22;26160;51.858;4.398;2022-11-25T10:51:48;10.50;99.90
40454;DHT22;26160;51.858;4.398;2022-11-25T10:54:21;10.50;99.90
40454;DHT22;26160;51.858;4.398;2022-11-25T10:56:59;10.60;99.90
40454;DHT22;26160;51.858;4.398;2022-11-25T10:59:34;10.70;99.90
40454;DHT22;26160;51.858;4.398;2022-11-25T11:02:24;10.70;99.90
40454;DHT22;26160;51.858;4.398;2022-11-25T11:04:54;10.70;99.90
40454;DHT22;26160;51.858;4.398;2022-11-25T11:07:21;10.80;99.90
40454;DHT22;26160;51.858;4.398;2022-11-25T11:09:48;10.80;99.90
40454;DHT22;26160;51.858;4.398;2022-11-25T11:12:26;10.90;99.90
40454;DHT22;26160;51.858;4.398;2022-11-25T11:15:12;10.90;99.90
40454;DHT22;26160;51.858;4.398;2022-11-25T11:17:39;11.10;99.90
40454;DHT22;26160;51.858;4.398;2022-11-25T11:22:35;11.50;99.90
40454;DHT22;26160;51.858;4.398;2022-11-25T11:25:24;11.80;99.90
40454;DHT22;26160;51.858;4.398;2022-11-25T11:27:52;11.90;99.90
40454;DHT22;26160;51.858;4.398;2022-11-25T11:30:27;12.10;99.90
40454;DHT22;26160;51.858;4.398;2022-11-25T11:33:06;12.40;99.90
40454;DHT22;26160;51.858;4.398;2022-11-25T11:38:31;12.30;99.90
40454;DHT22;26160;51.858;4.398;2022-11-25T11:41:48;12.10;99.90
40454;DHT22;26160;51.858;4.398;2022-11-25T12:00:47;11.60;99.90
40454;DHT22;26160;51.858;4.398;2022-11-25T12:03:22;11.60;99.90
40454;DHT22;26160;51.858;4.398;2022-11-25T12:05:48;11.40;99.90
40454;DHT22;26160;51.858;4.398;2022-11-25T12:08:28;11.30;99.90
40454;DHT22;26160;51.858;4.398;2022-11-25T12:11:01;11.20;99.90
40454;DHT22;26160;51.858;4.398;2022-11-25T12:16:39;11.30;99.90
40454;DHT22;26160;51.858;4.398;2022-11-25T12:19:19;11.30;99.90
40454;DHT22;26160;51.858;4.398;2022-11-25T12:24:41;11.30;99.90
40454;DHT22;26160;51.858;4.398;2022-11-25T12:27:19;11.40;99.90
40454;DHT22;26160;51.858;4.398;2022-11-25T12:29:51;11.40;99.90
40454;DHT22;26160;51.858;4.398;2022-11-25T12:38:29;11.60;99.90
40454;DHT22;26160;51.858;4.398;2022-11-25T12:41:00;11.60;99.90
40454;DHT22;26160;51.858;4.398;2022-11-25T12:43:46;11.60;99.90
40454;DHT22;26160;51.858;4.398;2022-11-25T12:46:35;11.80;99.90
40454;DHT22;26160;51.858;4.398;2022-11-25T12:49:06;11.90;99.90
40454;DHT22;26160;51.858;4.398;2022-11-25T13:04:06;12.10;99.90
40454;DHT22;26160;51.858;4.398;2022-11-25T13:15:31;12.00;99.90
40454;DHT22;26160;51.858;4.398;2022-11-25T13:18:12;12.00;99.90
40454;DHT22;26160;51.858;4.398;2022-11-25T13:20:47;12.00;99.90
40454;DHT22;26160;51.858;4.398;2022-11-25T13:25:45;12.00;99.90
40454;DHT22;26160;51.858;4.398;2022-11-25T13:28:33;12.00;99.90
40454;DHT22;26160;51.858;4.398;2022-11-25T13:36:18;11.90;99.90
40454;DHT22;26160;51.858;4.398;2022-11-25T13:41:23;12.00;99.90
40454;DHT22;26160;51.858;4.398;2022-11-25T13:46:43;12.10;99.90
40454;DHT22;26160;51.858;4.398;2022-11-25T13:49:30;12.20;99.90
40454;DHT22;26160;51.858;4.398;2022-11-25T13:54:39;12.40;99.90
40454;DHT22;26160;51.858;4.398;2022-11-25T14:05:07;12.60;99.90
40454;DHT22;26160;51.858;4.398;2022-11-25T14:10:49;12.50;99.90
40454;DHT22;26160;51.858;4.398;2022-11-25T14:16:25;12.50;99.90
40454;DHT22;26160;51.858;4.398;2022-11-25T14:19:15;12.60;99.90
40454;DHT22;26160;51.858;4.398;2022-11-25T14:21:55;12.70;99.90
40454;DHT22;26160;51.858;4.398;2022-11-25T14:24:49;12.80;99.90
40454;DHT22;26160;51.858;4.398;2022-11-25T14:27:30;12.70;99.90
40454;DHT22;26160;51.858;4.398;2022-11-25T14:30:10;12.70;99.90
40454;DHT22;26160;51.858;4.398;2022-11-25T14:35:41;12.70;99.90
40454;DHT22;26160;51.858;4.398;2022-11-25T14:38:37;12.50;99.90
40454;DHT22;26160;51.858;4.398;2022-11-25T14:41:50;12.50;99.90
40454;DHT22;26160;51.858;4.398;2022-11-25T14:44:23;12.50;99.90
40454;DHT22;26160;51.858;4.398;2022-11-25T14:47:03;12.40;99.90
40454;DHT22;26160;51.858;4.398;2022-11-25T14:49:49;12.20;99.90
40454;DHT22;26160;51.858;4.398;2022-11-25T14:52:27;12.10;99.90
40454;DHT22;26160;51.858;4.398;2022-11-25T14:54:58;12.10;99.90
40454;DHT22;26160;51.858;4.398;2022-11-25T14:57:31;12.10;99.90
40454;DHT22;26160;51.858;4.398;2022-11-25T15:00:10;12.00;99.90
40454;DHT22;26160;51.858;4.398;2022-11-25T15:03:13;12.00;99.90
40454;DHT22;26160;51.858;4.398;2022-11-25T15:05:55;11.90;99.90
40454;DHT22;26160;51.858;4.398;2022-11-25T15:08:38;11.80;99.90
40454;DHT22;26160;51.858;4.398;2022-11-25T15:11:17;11.70;99.90
40454;DHT22;26160;51.858;4.398;2022-11-25T15:14:10;11.50;99.90
40454;DHT22;26160;51.858;4.398;2022-11-25T15:17:05;11.50;99.90
40454;DHT22;26160;51.858;4.398;2022-11-25T15:19:42;11.40;99.90
40454;DHT22;26160;51.858;4.398;2022-11-25T15:22:19;11.30;99.90
40454;DHT22;26160;51.858;4.398;2022-11-25T15:25:14;11.30;99.90
40454;DHT22;26160;51.858;4.398;2022-11-25T15:27:49;11.20;99.90
40454;DHT22;26160;51.858;4.398;2022-11-25T15:30:28;11.10;99.90
40454;DHT22;26160;51.858;4.398;2022-11-25T15:33:00;10.90;99.90
40454;DHT22;26160;51.858;4.398;2022-11-25T15:35:32;10.80;99.90
40454;DHT22;26160;51.858;4.398;2022-11-25T15:38:35;10.80;99.90
40454;DHT22;26160;51.858;4.398;2022-11-25T15:41:04;10.70;99.90
40454;DHT22;26160;51.858;4.398;2022-11-25T15:43:37;10.60;99.90
40454;DHT22;26160;51.858;4.398;2022-11-25T15:46:09;10.50;99.90
40454;DHT22;26160;51.858;4.398;2022-11-25T15:48:49;10.50;99.90
40454;DHT22;26160;51.858;4.398;2022-11-25T15:51:25;10.40;99.90
40454;DHT22;26160;51.858;4.398;2022-11-25T15:56:46;10.20;99.90
40454;DHT22;26160;51.858;4.398;2022-11-25T15:59:37;10.10;99.90
40454;DHT22;26160;51.858;4.398;2022-11-25T16:05:24;10.00;99.90
40454;DHT22;26160;51.858;4.398;2022-11-25T16:08:35;9.90;99.90
40454;DHT22;26160;51.858;4.398;2022-11-25T16:11:22;9.80;99.90
40454;DHT22;26160;51.858;4.398;2022-11-25T16:14:23;9.60;99.90
40454;DHT22;26160;51.858;4.398;2022-11-25T16:17:20;9.50;99.90
40454;DHT22;26160;51.858;4.398;2022-11-25T16:19:52;9.30;99.90
40454;DHT22;26160;51.858;4.398;2022-11-25T16:22:30;9.30;99.90
40454;DHT22;26160;51.858;4.398;2022-11-25T16:25:21;9.20;99.90
40454;DHT22;26160;51.858;4.398;2022-11-25T16:27:58;9.10;99.90
40454;DHT22;26160;51.858;4.398;2022-11-25T16:30:32;9.10;99.90
40454;DHT22;26160;51.858;4.398;2022-11-25T16:33:39;9.10;99.90
40454;DHT22;26160;51.858;4.398;2022-11-25T16:36:29;9.00;99.90
40454;DHT22;26160;51.858;4.398;2022-11-25T16:39:06;9.00;99.90
40454;DHT22;26160;51.858;4.398;2022-11-25T16:41:58;9.00;99.90
40454;DHT22;26160;51.858;4.398;2022-11-25T16:44:33;8.90;99.90
40454;DHT22;26160;51.858;4.398;2022-11-25T16:47:13;8.90;99.90
40454;DHT22;26160;51.858;4.398;2022-11-25T16:49:45;8.80;99.90
40454;DHT22;26160;51.858;4.398;2022-11-25T16:52:35;8.70;99.90
40454;DHT22;26160;51.858;4.398;2022-11-25T16:55:06;8.70;99.90
40454;DHT22;26160;51.858;4.398;2022-11-25T16:57:39;8.80;99.90
40454;DHT22;26160;51.858;4.398;2022-11-25T17:00:26;8.80;99.90
40454;DHT22;26160;51.858;4.398;2022-11-25T17:03:08;8.80;99.90
40454;DHT22;26160;51.858;4.398;2022-11-25T17:05:45;8.80;99.90
40454;DHT22;26160;51.858;4.398;2022-11-25T17:08:23;8.80;99.90
40454;DHT22;26160;51.858;4.398;2022-11-25T17:10:55;8.90;99.90
40454;DHT22;26160;51.858;4.398;2022-11-25T17:13:57;8.90;99.90
40454;DHT22;26160;51.858;4.398;2022-11-25T17:16:34;8.80;99.90
40454;DHT22;26160;51.858;4.398;2022-11-25T17:19:26;8.80;99.90
40454;DHT22;26160;51.858;4.398;2022-11-25T17:22:39;8.70;99.90
40454;DHT22;26160;51.858;4.398;2022-11-25T17:25:18;8.80;99.90
40454;DHT22;26160;51.858;4.398;2022-11-25T17:28:13;8.70;99.90
40454;DHT22;26160;51.858;4.398;2022-11-25T17:30:46;8.60;99.90
40454;DHT22;26160;51.858;4.398;2022-11-25T17:33:21;8.60;99.90
40454;DHT22;26160;51.858;4.398;2022-11-25T17:35:49;8.50;99.90
40454;DHT22;26160;51.858;4.398;2022-11-25T17:38:18;8.50;99.90
40454;DHT22;26160;51.858;4.398;2022-11-25T17:40:47;8.40;99.90
40454;DHT22;26160;51.858;4.398;2022-11-25T17:43:17;8.30;99.90
40454;DHT22;26160;51.858;4.398;2022-11-25T17:45:45;8.30;99.90
40454;DHT22;26160;51.858;4.398;2022-11-25T17:48:16;8.30;99.90
40454;DHT22;26160;51.858;4.398;2022-11-25T17:50:42;8.20;99.90
40454;DHT22;26160;51.858;4.398;2022-11-25T17:53:08;8.20;99.90
40454;DHT22;26160;51.858;4.398;2022-11-25T17:58:37;8.00;99.90
40454;DHT22;26160;51.858;4.398;2022-11-25T18:04:15;7.80;99.90
40454;DHT22;26160;51.858;4.398;2022-11-25T18:06:59;7.70;99.90
40454;DHT22;26160;51.858;4.398;2022-11-25T18:18:24;7.50;99.90
40454;DHT22;26160;51.858;4.398;2022-11-25T18:20:52;7.40;99.90
40454;DHT22;26160;51.858;4.398;2022-11-25T18:23:18;7.40;99.90
40454;DHT22;26160;51.858;4.398;2022-11-25T18:25:45;7.30;99.90